National Weather Service Raw Text Product

Displaying AFOS PIL: TAFDSM Received: 2018-08-11 05:20 UTC


347 
FTUS43 KDMX 110520
TAFDSM
TAF
KDSM 110520Z 1106/1206 VRB03KT P6SM SKC
     FM111100 00000KT 6SM BR FEW250
     FM111400 VRB04KT P6SM FEW250=